Map

Track Data

SID SEASON NUMBER BASIN SUBBASIN NAME ISO_TIME NATURE LAT LON WMO_WIND WMO_PRES WMO_AGENCY TRACK_TYPE DIST2LAND LANDFALL IFLAG USA_AGENCY USA_ATCF_ID USA_LAT USA_LON USA_RECORD USA_STATUS USA_WIND USA_PRES USA_SSHS USA_R34_NE USA_R34_SE USA_R34_SW USA_R34_NW USA_R50_NE USA_R50_SE USA_R50_SW USA_R50_NW USA_R64_NE USA_R64_SE USA_R64_SW USA_R64_NW USA_POCI USA_ROCI USA_RMW USA_EYE TOKYO_LAT TOKYO_LON TOKYO_GRADE TOKYO_WIND TOKYO_PRES TOKYO_R50_DIR TOKYO_R50_LONG TOKYO_R50_SHORT TOKYO_R30_DIR TOKYO_R30_LONG TOKYO_R30_SHORT TOKYO_LAND CMA_LAT CMA_LON CMA_CAT CMA_WIND CMA_PRES HKO_LAT HKO_LON HKO_CAT HKO_WIND HKO_PRES NEWDELHI_LAT NEWDELHI_LON NEWDELHI_GRADE NEWDELHI_WIND NEWDELHI_PRES NEWDELHI_CI NEWDELHI_DP NEWDELHI_POCI REUNION_LAT REUNION_LON REUNION_TYPE REUNION_WIND REUNION_PRES REUNION_TNUM REUNION_CI REUNION_RMW REUNION_R34_NE REUNION_R34_SE REUNION_R34_SW REUNION_R34_NW REUNION_R50_NE REUNION_R50_SE REUNION_R50_SW REUNION_R50_NW REUNION_R64_NE REUNION_R64_SE REUNION_R64_SW REUNION_R64_NW BOM_LAT BOM_LON BOM_TYPE BOM_WIND BOM_PRES BOM_TNUM BOM_CI BOM_RMW BOM_R34_NE BOM_R34_SE BOM_R34_SW BOM_R34_NW BOM_R50_NE BOM_R50_SE BOM_R50_SW BOM_R50_NW BOM_R64_NE BOM_R64_SE BOM_R64_SW BOM_R64_NW BOM_ROCI BOM_POCI BOM_EYE BOM_POS_METHOD BOM_PRES_METHOD NADI_LAT NADI_LON NADI_CAT NADI_WIND NADI_PRES WELLINGTON_LAT WELLINGTON_LON WELLINGTON_WIND WELLINGTON_PRES DS824_LAT DS824_LON DS824_STAGE DS824_WIND DS824_PRES TD9636_LAT TD9636_LON TD9636_STAGE TD9636_WIND TD9636_PRES TD9635_LAT TD9635_LON TD9635_WIND TD9635_PRES TD9635_ROCI NEUMANN_LAT NEUMANN_LON NEUMANN_CLASS NEUMANN_WIND NEUMANN_PRES MLC_LAT MLC_LON MLC_CLASS MLC_WIND MLC_PRES USA_GUST BOM_GUST BOM_GUST_PER REUNION_GUST REUNION_GUST_PER USA_SEAHGT USA_SEARAD_NE USA_SEARAD_SE USA_SEARAD_SW USA_SEARAD_NW STORM_SPEED STORM_DIR
1968086S13078 1968 22 SI MM MONIQUE 1968-03-26 06:00:00 TS -12.6800 78.3600 reunion main 2098 2098 O____O___OO_O_ jtwc_sh SH311968 -13.0000 77.4000 -1 -12.2000 79.8000 3 9.90000 -13.0000 77.4000 TC 25 -13.0000 77.4000 7 -12.2000 79.8000 TC 35 9 268
1968086S13078 1968 22 SI MM MONIQUE 1968-03-26 09:00:00 TS -12.6978 77.9170 main 2105 2105 P____P___PP_P_ SH311968 -13.0001 77.0100 -1 -12.2425 79.2950 3 -13.0001 77.0100 TC 25 -13.0037 76.9752 7 -12.2425 79.2950 TC 35 9 267
1968086S13078 1968 22 SI MM MONIQUE 1968-03-26 12:00:00 TS -12.7211 77.4300 reunion main 2113 2113 O____O___OP_O_ jtwc_sh SH311968 -13.0000 76.6000 -1 -12.3000 78.7000 99 9.90000 -13.0000 76.6000 TC 25 -13.0057 76.5503 7 -12.3000 78.7000 TC 35 10 267
1968086S13078 1968 22 SI MM MONIQUE 1968-03-26 15:00:00 TS -12.7550 76.8740 main 2134 2134 P____P___PP_P_ SH311968 -13.0000 76.1575 -1 -12.3851 77.9650 99 -13.0000 76.1575 TC 30 -13.0048 76.1252 7 -12.3851 77.9650 TC 37 11 266
1968086S13078 1968 22 SI MM MONIQUE 1968-03-26 18:00:00 TS -12.8000 76.3000 reunion main 2141 2087 O____O___OO_O_ jtwc_sh SH311968 -13.0000 75.7000 -1 -12.5000 77.2000 99 9.90000 -13.0000 75.7000 TC 35 -13.0000 75.7000 2 -12.5000 77.2000 TC 40 11 265
1968086S13078 1968 22 SI MM MONIQUE 1968-03-26 21:00:00 TS -12.8555 75.7716 main 2087 2038 P____P___PP_P_ SH311968 -12.9924 75.2500 -1 -12.6497 76.5425 99 -12.9924 75.2500 TC 35 -12.9931 75.2731 2 -12.6497 76.5425 TC 40 10 263
1968086S13078 1968 22 SI MM MONIQUE 1968-03-27 00:00:00 TS -12.9194 75.2474 reunion main 2029 1975 O____O___OP_O_ jtwc_sh SH311968 -13.0000 74.8000 -1 -12.8000 75.9000 99 9.90000 -13.0000 74.8000 TC 35 -12.9969 74.8369 2 -12.8000 75.9000 TC 40 11 263
1968086S13078 1968 22 SI MM MONIQUE 1968-03-27 03:00:00 TS -12.9764 74.7024 main 1975 1922 P____P___PP_P_ SH311968 -13.0273 74.3649 -1 -12.8999 75.1998 99 -13.0273 74.3649 TC 35 -13.0274 74.3823 2 -12.8999 75.1998 TC 42 11 263
1968086S13078 1968 22 SI MM MONIQUE 1968-03-27 06:00:00 TS -13.0600 74.1400 reunion main 1912 1859 O____O___OO_O_ jtwc_sh SH311968 -13.1000 73.9000 -1 -13.0000 74.5000 3 9.90000 -13.1000 73.9000 TC 35 -13.1000 73.9000 2 -13.0000 74.5000 TC 45 11 259
1968086S13078 1968 22 SI MM MONIQUE 1968-03-27 09:00:00 TS -13.1859 73.5465 main 1849 1796 P____P___PP_P_ SH311968 -13.2275 73.3650 -1 -13.1274 73.8199 3 -13.2275 73.3650 TC 35 -13.2199 73.3627 2 -13.1274 73.8199 TC 47 12 256
1968086S13078 1968 22 SI MM MONIQUE 1968-03-27 12:00:00 TS -13.3566 72.9600 reunion main 1791 1723 O____O___OP_O_ jtwc_sh SH311968 -13.4000 72.8000 -1 -13.3000 73.2000 99 9.90000 -13.4000 72.8000 TC 35 -13.3828 72.8002 2 -13.3000 73.2000 TC 50 12 251
1968086S13078 1968 22 SI MM MONIQUE 1968-03-27 15:00:00 TS -13.5727 72.4155 main 1723 1665 P____P___PP_P_ SH311968 -13.5925 72.2350 -1 -13.5497 72.6850 99 -13.5925 72.2350 TC 35 -13.5792 72.2375 2 -13.5497 72.6850 TC 52 11 247
1968086S13078 1968 22 SI MM MONIQUE 1968-03-27 18:00:00 TS -13.8000 71.9000 reunion main 1665 1606 O____O___OO_O_ jtwc_sh SH311968 -13.8000 71.7000 -1 -13.8000 72.2000 99 9.90000 -13.8000 71.7000 TC 35 -13.8000 71.7000 2 -13.8000 72.2000 TC 55 11 248
1968086S13078 1968 22 SI MM MONIQUE 1968-03-27 21:00:00 TS -13.9694 71.4063 main 1606 1548 P____P___PP_P_ SH311968 -13.9848 71.2348 -1 -13.9349 71.6646 99 -13.9848 71.2348 TC 35 -14.0074 71.2328 2 -13.9349 71.6646 TC 57 10 249
1968086S13078 1968 22 SI MM MONIQUE 1968-03-28 00:00:00 TS -14.1678 70.9183 reunion main 1548 1490 O____O___OP_O_ jtwc_sh SH311968 -14.2000 70.8000 -1 -14.1000 71.1000 99 9.90000 -14.2000 70.8000 TC 35 -14.2391 70.7915 2 -14.1000 71.1000 TC 60 11 243
1968086S13078 1968 22 SI MM MONIQUE 1968-03-28 03:00:00 TS -14.4651 70.4169 main 1485 1422 P____P___PP_P_ SH311968 -14.4774 70.3574 -1 -14.4349 70.5077 99 -14.4774 70.3574 TC 35 -14.5012 70.3545 2 -14.4349 70.5077 TC 60 12 237
1968086S13078 1968 22 SI MM MONIQUE 1968-03-28 06:00:00 TS -14.8000 69.9000 reunion main 1422 1359 O____O___OO_O_ jtwc_sh SH311968 -14.8000 69.9000 -1 -14.8000 69.9000 4 9.90000 -14.8000 69.9000 TC 35 -14.8000 69.9000 2 -14.8000 69.9000 TC 60 12 238
1968086S13078 1968 22 SI MM MONIQUE 1968-03-28 09:00:00 TS -15.0970 69.3718 main 1359 1286 P____P___PP_P_ SH311968 -15.1349 69.4148 -1 -15.0422 69.3145 4 -15.1349 69.4148 TC 35 -15.1308 69.4004 2 -15.0422 69.3145 TC 62 12 239
1968086S13078 1968 22 SI MM MONIQUE 1968-03-28 12:00:00 TS -15.4194 68.8159 reunion main 1286 1208 O____O___OP_O_ jtwc_sh SH311968 -15.5000 68.9000 -1 -15.3000 68.7000 99 9.90000 -15.5000 68.9000 TC 35 -15.4972 68.8795 2 -15.3000 68.7000 TC 65 13 238
1968086S13078 1968 22 SI MM MONIQUE 1968-03-28 15:00:00 TS -15.8000 68.2087 main 1208 1131 P____P___PP_P_ SH311968 -15.8849 68.3573 -1 -15.6701 67.9926 99 -15.8849 68.3573 TC 35 -15.8901 68.3439 2 -15.6701 67.9926 TC 67 14 236
1968086S13078 1968 22 SI MM MONIQUE 1968-03-28 18:00:00 TS -16.2200 67.6000 reunion main 1131 1064 O____O___OO_O_ jtwc_sh SH311968 -16.3000 67.8000 -1 -16.1000 67.3000 99 9.90000 -16.3000 67.8000 TC 35 -16.3000 67.8000 2 -16.1000 67.3000 TC 70 14 232
1968086S13078 1968 22 SI MM MONIQUE 1968-03-28 21:00:00 TS -16.6605 67.0444 main 1050 983 P____P___PP_P_ SH311968 -16.7499 67.2499 -1 -16.5421 66.7346 99 -16.7499 67.2499 TC 35 -16.7185 67.2529 2 -16.5421 66.7346 TC 70 14 230
1968086S13078 1968 22 SI MM MONIQUE 1968-03-29 00:00:00 TS -17.1099 66.4999 reunion main 983 917 O____O___OP_O_ jtwc_sh SH311968 -17.2000 66.7000 -1 -17.0000 66.2000 99 9.90000 -17.2000 66.7000 TC 35 -17.1496 66.6997 2 -17.0000 66.2000 TC 70 14 230
1968086S13078 1968 22 SI MM MONIQUE 1968-03-29 03:00:00 TS -17.5512 65.9203 main 903 842 P____P___PP_P_ SH311968 -17.6148 66.1498 -1 -17.4726 65.5777 99 -17.6148 66.1498 TC 50 -17.5810 66.1466 2 -17.4726 65.5777 TC 70 14 232
1968086S13078 1968 22 SI MM MONIQUE 1968-03-29 06:00:00 TS -17.9600 65.3600 reunion main 838 777 O____O___OO_O_ jtwc_sh SH311968 -18.0000 65.6000 -1 -17.9000 65.0000 4 9.90000 -18.0000 65.6000 TC 65 -18.0000 65.6000 4 -17.9000 65.0000 TC 70 13 234
1968086S13078 1968 22 SI MM MONIQUE 1968-03-29 09:00:00 TS -18.3042 64.8498 main 767 717 P____P___PP_P_ SH311968 -18.3499 65.0422 -1 -18.2223 64.5471 4 -18.3499 65.0422 TC 65 -18.3766 65.0706 4 -18.2223 64.5471 TC 70 11 234
1968086S13078 1968 22 SI MM MONIQUE 1968-03-29 12:00:00 TS -18.6283 64.3896 reunion main 717 665 O____O___OP_O_ jtwc_sh SH311968 -18.7000 64.5000 -1 -18.5000 64.2000 99 9.90000 -18.7000 64.5000 TC 65 -18.7417 64.5481 4 -18.5000 64.2000 TC 70 11 231
1968086S13078 1968 22 SI MM MONIQUE 1968-03-29 15:00:00 TS -18.9730 63.9821 main 665 616 P____P___PP_P_ SH311968 -19.0847 63.9996 -1 -18.7923 63.9422 99 -19.0847 63.9996 TC 65 -19.1109 64.0267 4 -18.7923 63.9422 TC 70 10 227
1968086S13078 1968 22 SI MM MONIQUE 1968-03-29 18:00:00 TS -19.3400 63.5800 reunion main 616 557 O____O___OO_O_ jtwc_sh SH311968 -19.5000 63.5000 -1 -19.1000 63.7000 99 9.90000 -19.5000 63.5000 TC 65 -19.5000 63.5000 4 -19.1000 63.7000 TC 70 11 227
1968086S13078 1968 22 SI MM MONIQUE 1968-03-29 21:00:00 TS -19.7346 63.1099 main 557 501 P____P___PP_P_ SH311968 -19.9424 62.9573 -1 -19.4275 63.3649 99 -19.9424 62.9573 TC 65 -19.9330 62.9052 4 -19.4275 63.3649 TC 67 12 228
1968086S13078 1968 22 SI MM MONIQUE 1968-03-30 00:00:00 TS -20.1572 62.6223 reunion main 500 459 O____O___OP_O_ jtwc_sh SH311968 -20.4000 62.4000 -1 -19.8000 63.0000 99 9.90000 -20.4000 62.4000 TC 65 -20.3859 62.3113 4 -19.8000 63.0000 TC 65 13 226
1968086S13078 1968 22 SI MM MONIQUE 1968-03-30 03:00:00 TS -20.6182 62.1284 main 449 413 P____P___PP_P_ SH311968 -20.8576 61.8126 -1 -20.2650 62.6277 99 -20.8576 61.8126 TC 65 -20.8457 61.7615 4 -20.2650 62.6277 TC 65 13 224
1968086S13078 1968 22 SI MM MONIQUE 1968-03-30 06:00:00 TS -21.0600 61.7000 reunion main 415 390 O____O___OO_O_ jtwc_sh SH311968 -21.3000 61.3000 -1 -20.7000 62.3000 4 9.90000 -21.3000 61.3000 TC 65 -21.3000 61.3000 4 -20.7000 62.3000 TC 65 10 221
1968086S13078 1968 22 SI MM MONIQUE 1968-03-30 09:00:00 TS -21.4044 61.4068 main 393 381 P____P___PP_P_ SH311968 -21.6998 60.9396 -1 -20.9498 62.0993 4 -21.6998 60.9396 TC 65 -21.7231 60.9559 4 -20.9498 62.0993 TC 62 8 215
1968086S13078 1968 22 SI MM MONIQUE 1968-03-30 12:00:00 TS -21.7483 61.1812 reunion main 386 376 O____O___OP_O_ jtwc_sh SH311968 -22.1000 60.7000 -1 -21.2000 61.9000 99 9.90000 -22.1000 60.7000 TC 65 -22.1414 60.7060 4 -21.2000 61.9000 TC 60 9 210
1968086S13078 1968 22 SI MM MONIQUE 1968-03-30 15:00:00 TS -22.1719 60.9277 main 381 378 P____P___PP_P_ SH311968 -22.5349 60.5346 -1 -21.6128 61.5206 99 -22.5349 60.5346 TC 65 -22.5640 60.5282 4 -21.6128 61.5206 TC 60 10 206
1968086S13078 1968 22 SI MM MONIQUE 1968-03-30 18:00:00 TS -22.6400 60.7200 reunion main 389 389 O____O___OO_O_ jtwc_sh SH311968 -23.0000 60.4000 -1 -22.1000 61.2000 99 9.90000 -23.0000 60.4000 TC 65 -23.0000 60.4000 4 -22.1000 61.2000 TC 60 10 199
1968086S13078 1968 22 SI MM MONIQUE 1968-03-30 21:00:00 TS -23.1284 60.5618 main 417 417 P____P___PP_P_ SH311968 -23.5001 60.1704 -1 -22.5849 61.1470 99 -23.5001 60.1704 TC 65 -23.4720 60.1741 4 -22.5849 61.1470 TC 57 10 193
1968086S13078 1968 22 SI MM MONIQUE 1968-03-31 00:00:00 TS -23.6312 60.4812 reunion main 450 450 O____O___OP_O_ jtwc_sh SH311968 -24.0000 60.0000 -1 -23.1000 61.2000 99 9.90000 -24.0000 60.0000 TC 65 -23.9559 60.0058 4 -23.1000 61.2000 TC 55 10 186
1968086S13078 1968 22 SI MM MONIQUE 1968-03-31 03:00:00 TS -24.1122 60.4382 main 488 488 P____P___PP_P_ SH311968 -24.4646 59.9379 -1 -23.5975 61.1779 99 -24.4646 59.9379 TC 65 -24.4369 59.9593 4 -23.5975 61.1779 TC 52 10 176
1968086S13078 1968 22 SI MM MONIQUE 1968-03-31 06:00:00 MX -24.6200 60.5400 reunion main 540 540 O____O___OO_O_ jtwc_sh SH311968 -24.9000 60.1000 -1 -24.2000 61.2000 5 9.90000 -24.9000 60.1000 TC 65 -24.9000 60.1000 4 -24.2000 61.2000 EX 50 11 161
1968086S13078 1968 22 SI MM MONIQUE 1968-03-31 09:00:00 MX -25.1868 60.8516 main 619 619 P____P___PP_P_ SH311968 -25.3077 60.5598 -1 -24.9975 61.3053 5 -25.3077 60.5598 TC 65 -25.3235 60.5279 4 -24.9975 61.3053 EX 47 14 149
1968086S13078 1968 22 SI MM MONIQUE 1968-03-31 12:00:00 MX -25.7851 61.3079 reunion main 697 697 O____O___OP_O_ jtwc_sh SH311968 -25.7000 61.2000 -1 -25.9000 61.5000 99 9.90000 -25.7000 61.2000 TC 65 -25.7256 61.1395 4 -25.9000 61.5000 EX 45 15 144
1968086S13078 1968 22 SI MM MONIQUE 1968-03-31 15:00:00 MX -26.3889 61.8144 main 780 780 P____P___PP_P_ SH311968 -26.1003 61.8650 -1 -26.8149 61.7552 99 -26.1003 61.8650 TC 65 -26.1144 61.8317 4 -26.8149 61.7552 EX 42 15 142
1968086S13078 1968 22 SI MM MONIQUE 1968-03-31 18:00:00 MX -26.9800 62.3400 reunion main 863 863 O____O___OO_O_ jtwc_sh SH311968 -26.5000 62.5000 -1 -27.7000 62.1000 99 9.90000 -26.5000 62.5000 TC 65 -26.5000 62.5000 4 -27.7000 62.1000 EX 40 14 142
1968086S13078 1968 22 SI MM MONIQUE 1968-03-31 21:00:00 MX -27.4968 62.7834 main 937 937 P____P___PP_P_ SH311968 -26.8995 62.9806 -1 -28.4194 62.4777 99 -26.8995 62.9806 TC 65 -26.8461 63.0003 4 -28.4194 62.4777 EX 40 13 143
1968086S13078 1968 22 SI MM MONIQUE 1968-04-01 00:00:00 MX -28.0402 63.2514 reunion main 1011 1011 O____O___OP_O_ jtwc_sh SH311968 -27.3000 63.4000 -1 -29.2000 63.0000 99 9.90000 -27.3000 63.4000 TC 65 -27.2012 63.4569 4 -29.2000 63.0000 EX 40 16 143
1968086S13078 1968 22 SI MM MONIQUE 1968-04-01 03:00:00 MX -28.7307 63.8472 main 1103 1103 P____P___PP_P_ SH311968 -27.6549 63.8509 -1 -30.3690 63.8247 99 -27.6549 63.8509 TC 65 -27.6057 63.8849 4 -30.3690 63.8247 EX 40 17 143
1968086S13078 1968 22 SI MM MONIQUE 1968-04-01 06:00:00 MX -29.4200 64.4200 reunion main 1201 1201 O____O___OO_O_ jtwc_sh SH311968 -28.1000 64.3000 -1 -31.4000 64.6000 5 9.90000 -28.1000 64.3000 TC 65 -28.1000 64.3000 4 -31.4000 64.6000 EX 40 15 146
1968086S13078 1968 22 SI MM MONIQUE 1968-04-01 09:00:00 MX -29.9754 64.8199 main 1278 1278 P____P___PP_P_ SH311968 -28.7475 64.7575 -1 -31.8114 64.9284 5 -28.7475 64.7575 TC 65 -28.7594 64.7275 4 -31.8114 64.9284 EX 40 13 150
1968086S13078 1968 22 SI MM MONIQUE 1968-04-01 12:00:00 MX -30.5009 65.1499 reunion main 1340 1340 O____O___OP_O_ jtwc_sh SH311968 -29.5000 65.2000 -1 -32.0000 65.1000 99 9.90000 -29.5000 65.2000 TC 65 -29.5043 65.1493 4 -32.0000 65.1000 EX 40 13 152
1968086S13078 1968 22 SI MM MONIQUE 1968-04-01 15:00:00 MX -31.1123 65.5173 main 1416 1416 P____P___PP_P_ SH311968 -30.2723 65.6078 -1 -32.3725 65.3997 99 -30.2723 65.6078 TC 65 -30.2720 65.5716 4 -32.3725 65.3997 EX 40 13 152
1968086S13078 1968 22 SI MM MONIQUE 1968-04-01 18:00:00 MX -31.6800 65.8800 reunion main 1493 1493 O____O___OO_O_ jtwc_sh SH311968 -31.0000 66.0000 -1 -32.7000 65.7000 99 9.90000 -31.0000 66.0000 TC 65 -31.0000 66.0000 4 -32.7000 65.7000 EX 40 12 149
1968086S13078 1968 22 SI MM MONIQUE 1968-04-01 21:00:00 MX -32.1012 66.2134 main 1546 1546 P____P___PP_P_ SH311968 -31.5797 66.3861 -1 -32.8724 65.9580 99 -31.5797 66.3861 TC 65 -31.6018 66.3790 4 -32.8724 65.9580 EX 40 10 144
1968086S13078 1968 22 SI MM MONIQUE 1968-04-02 00:00:00 MX -32.4712 66.5546 reunion main 1604 1604 O____O___OP_O_ jtwc_sh SH311968 -32.1000 66.8000 -1 -33.0000 66.2000 99 9.90000 -32.1000 66.8000 TC 65 -32.1559 66.7728 4 -33.0000 66.2000 EX 40 9 142
1968086S13078 1968 22 SI MM MONIQUE 1968-04-02 03:00:00 MX -32.8489 66.8961 main 1647 1647 P____P___PP_P_ SH311968 -32.6568 67.2410 -1 -33.1243 66.3844 99 -32.6568 67.2410 TC 65 -32.6822 67.2298 4 -33.1243 66.3844 EX 37 11 140
1968086S13078 1968 22 SI MM MONIQUE 1968-04-02 06:00:00 MX -33.2800 67.3600 reunion main 1720 1670 O____O___OO_O_ jtwc_sh SH311968 -33.2000 67.8000 -1 -33.4000 66.7000 5 9.90000 -33.2000 67.8000 TC 65 -33.2000 67.8000 4 -33.4000 66.7000 EX 35 14 136
1968086S13078 1968 22 SI MM MONIQUE 1968-04-02 09:00:00 MX -33.8186 68.0345 main 1670 1601 P____P___PP_P_ SH311968 -33.6998 68.5335 -1 -33.9820 67.2800 5 -33.6998 68.5335 TC 65 -33.7294 68.5454 4 -33.9820 67.2800 EX 35 17 132
1968086S13078 1968 22 SI MM MONIQUE 1968-04-02 12:00:00 MX -34.4103 68.8818 reunion main 1601 1536 O____O___OP_O_ jtwc_sh SH311968 -34.2000 69.4000 -1 -34.7000 68.1000 99 9.90000 -34.2000 69.4000 TC 65 -34.2515 69.4091 4 -34.7000 68.1000 EX 35 19 129
1968086S13078 1968 22 SI MM MONIQUE 1968-04-02 15:00:00 MX -34.9939 69.8186 main 1536 1484 P____P___PP_P_ SH311968 -34.7424 70.3355 -1 -35.3561 69.0392 99 -34.7424 70.3355 TC 65 -34.7726 70.3435 4 -35.3561 69.0392 EX 35 20 126
1968086S13078 1968 22 SI MM MONIQUE 1968-04-02 18:00:00 MX -35.5800 70.8600 reunion main 1476 1430 O____O___OO_O_ jtwc_sh SH311968 -35.3000 71.3000 -1 -36.0000 70.2000 99 9.90000 -35.3000 71.3000 TC 65 -35.3000 71.3000 4 -36.0000 70.2000 EX 35 21 124
1968086S13078 1968 22 SI MM MONIQUE 1968-04-02 21:00:00 MX -36.1475 71.9594 main 1433 1383 P____P___PP_P_ SH311968 -35.8490 72.2016 -1 -36.5997 71.5772 99 -35.8490 72.2016 TC 50 -35.8402 72.2396 4 -36.5997 71.5772 EX 35 21 122
1968086S13078 1968 22 SI MM MONIQUE 1968-04-03 00:00:00 MX -36.7181 73.1125 reunion main 1385 1345 O____O___OP_O_ jtwc_sh SH311968 -36.4000 73.1000 -1 -37.2000 73.1000 99 9.90000 -36.4000 73.1000 TC 35 -36.3907 73.1628 4 -37.2000 73.1000 EX 35 22 122
1968086S13078 1968 22 SI MM MONIQUE 1968-04-03 03:00:00 MX -37.3062 74.2873 main 1346 1305 P____P___PP_P_ SH311968 -36.9518 74.0345 -1 -37.8408 74.6441 99 -36.9518 74.0345 TC 35 -36.9459 74.0796 4 -37.8408 74.6441 EX 32 22 122
1968086S13078 1968 22 SI MM MONIQUE 1968-04-03 06:00:00 MX -37.9000 75.4800 reunion main 1307 O____O___OO_O_ jtwc_sh SH311968 -37.5000 75.0000 -1 -38.5000 76.2000 6 9.90000 -37.5000 75.0000 TC 35 -37.5000 75.0000 2 -38.5000 76.2000 EX 30 22 122

About IBTrACS Database

This database is a web-friendly format of International Best Track Archive for Climate Stewardship (IBTrACS), a global best track data archive curated by NOAA dating back to 1842.

Updated: 2021-10-27